Time;durP1;ratioP1;P1;durP2;ratioP2;P2;SDS_P1;SDS_P2;PMS_P1;PMS_P2;Temp;Humidity;BMP_temperature;BMP_pressure;BME280_temperature;BME280_humidity;BME280_pressure;Samples;Min_cycle;Max_cycle;Signal;HPM_P1;HPM_P2
2022/01/28 00:04:48;;;;;;;18.55;3.53;;;4.60;99.90;;;;;;5025589;28;20042;-72
2022/01/28 00:07:14;;;;;;;19.27;2.65;;;4.60;99.90;;;;;;5021833;28;20088;-72
2022/01/28 00:09:39;;;;;;;22.90;3.00;;;4.60;99.90;;;;;;5015055;28;20049;-73
2022/01/28 00:12:07;;;;;;;17.05;2.42;;;4.60;99.90;;;;;;5009326;28;20052;-73
2022/01/28 00:17:44;;;;;;;22.67;2.88;;;4.60;99.90;;;;;;5029724;28;20049;-73
2022/01/28 00:20:47;;;;;;;21.10;3.53;;;4.60;99.90;;;;;;5020612;28;20128;-72
2022/01/28 00:36:44;;;;;;;21.63;3.22;;;4.70;99.90;;;;;;5039392;28;20076;-72
2022/01/28 00:39:09;;;;;;;14.90;2.60;;;4.70;99.90;;;;;;5022467;28;20052;-72
2022/01/28 00:41:35;;;;;;;18.70;2.45;;;4.60;99.90;;;;;;5037762;28;20034;-71
2022/01/28 00:44:00;;;;;;;21.63;3.03;;;4.60;99.90;;;;;;5028982;28;20054;-71
2022/01/28 00:46:26;;;;;;;20.60;2.63;;;4.60;99.90;;;;;;5033190;28;20050;-73
2022/01/28 00:48:52;;;;;;;21.63;2.83;;;4.60;99.90;;;;;;5049093;28;20136;-72
2022/01/28 00:51:18;;;;;;;18.65;2.90;;;4.60;99.90;;;;;;5050965;28;20144;-73
2022/01/28 00:53:43;;;;;;;25.00;3.38;;;4.60;99.90;;;;;;5034916;28;20128;-72
2022/01/28 00:56:09;;;;;;;30.30;3.88;;;4.60;99.90;;;;;;5017965;28;20127;-71
2022/01/28 00:58:35;;;;;;;15.45;2.33;;;4.70;99.90;;;;;;5009153;28;20044;-72
2022/01/28 01:01:00;;;;;;;18.25;2.60;;;4.60;99.90;;;;;;5015164;28;20091;-74
2022/01/28 01:03:26;;;;;;;20.95;2.80;;;4.60;99.90;;;;;;5039055;28;20077;-73
2022/01/28 01:05:52;;;;;;;23.70;3.08;;;4.70;99.90;;;;;;5001311;28;20084;-73
2022/01/28 01:08:17;;;;;;;24.08;3.10;;;4.70;99.90;;;;;;5018829;28;20081;-73
2022/01/28 01:10:43;;;;;;;24.75;3.15;;;4.60;99.90;;;;;;5024897;28;20696;-73
2022/01/28 01:13:09;;;;;;;25.05;3.20;;;4.60;99.90;;;;;;5014264;28;20034;-73
2022/01/28 01:15:39;;;;;;;34.58;4.57;;;4.70;99.90;;;;;;5022462;28;20069;-72
2022/01/28 01:20:46;;;;;;;35.13;4.13;;;4.70;99.90;;;;;;5031197;28;20049;-73
2022/01/28 01:23:29;;;;;;;22.50;3.95;;;4.70;99.90;;;;;;5045355;28;20061;-72
2022/01/28 01:28:35;;;;;;;25.75;4.18;;;4.70;99.90;;;;;;5027499;28;20532;-73
2022/01/28 01:31:03;;;;;;;19.42;2.85;;;4.70;99.90;;;;;;5023163;28;20054;-73
2022/01/28 01:33:33;;;;;;;22.55;3.95;;;4.80;99.90;;;;;;5029682;28;20073;-72
2022/01/28 01:36:00;;;;;;;25.48;3.65;;;4.80;99.90;;;;;;5023708;28;20045;-72
2022/01/28 01:38:28;;;;;;;30.95;4.60;;;4.80;99.90;;;;;;5016114;28;20052;-72
2022/01/28 01:40:58;;;;;;;31.70;4.53;;;4.80;99.90;;;;;;5017859;28;20039;-73
2022/01/28 01:53:44;;;;;;;26.08;4.13;;;4.60;99.90;;;;;;5035746;28;20052;-72
2022/01/28 01:56:10;;;;;;;30.75;4.43;;;4.60;99.90;;;;;;5011464;28;20613;-73
2022/01/28 01:58:37;;;;;;;33.47;4.80;;;4.60;99.90;;;;;;5027774;28;20069;-72
2022/01/28 02:01:02;;;;;;;29.08;4.88;;;4.70;99.90;;;;;;5025141;28;20034;-73
2022/01/28 02:03:29;;;;;;;27.48;4.03;;;4.70;99.90;;;;;;5031059;28;20091;-72
2022/01/28 02:05:59;;;;;;;29.95;4.25;;;4.70;99.90;;;;;;5032093;28;20037;-72
2022/01/28 02:08:26;;;;;;;26.50;4.93;;;4.80;99.90;;;;;;5035530;28;20450;-72
2022/01/28 02:10:57;;;;;;;36.17;4.43;;;4.80;99.90;;;;;;5034348;28;20090;-72
2022/01/28 02:13:27;;;;;;;32.80;4.70;;;4.90;99.90;;;;;;5029035;28;20041;-72
2022/01/28 02:15:53;;;;;;;34.58;4.82;;;4.90;99.90;;;;;;5021160;28;20056;-72
2022/01/28 02:18:20;;;;;;;24.95;3.83;;;5.00;99.90;;;;;;5030538;28;20043;-72
2022/01/28 02:20:49;;;;;;;28.08;4.30;;;5.00;99.90;;;;;;5029447;28;20045;-72
2022/01/28 02:23:15;;;;;;;25.17;4.10;;;5.10;99.90;;;;;;5027979;28;20040;-72
2022/01/28 02:25:42;;;;;;;26.95;4.72;;;5.10;99.90;;;;;;5033391;28;20049;-72
2022/01/28 02:28:10;;;;;;;26.95;4.03;;;5.20;99.90;;;;;;5023304;28;20472;-70
2022/01/28 02:30:36;;;;;;;28.80;3.88;;;5.20;99.90;;;;;;5033149;28;20096;-72
2022/01/28 02:33:15;;;;;;;30.92;3.53;;;5.20;99.90;;;;;;5023738;28;20049;-72
2022/01/28 02:35:43;;;;;;;30.05;4.13;;;5.20;99.90;;;;;;5037676;28;20506;-72
2022/01/28 02:38:13;;;;;;;34.53;3.85;;;5.20;99.90;;;;;;5042238;28;20071;-72
2022/01/28 02:40:43;;;;;;;27.08;4.53;;;5.20;99.90;;;;;;5046560;28;20172;-72
2022/01/28 02:45:41;;;;;;;24.33;4.38;;;5.10;99.90;;;;;;5037546;28;20081;-73
2022/01/28 02:48:15;;;;;;;29.20;3.70;;;5.10;99.90;;;;;;5049428;28;20057;-72
2022/01/28 02:50:48;;;;;;;32.75;3.90;;;5.00;99.90;;;;;;5016162;28;20054;-72
2022/01/28 02:53:23;;;;;;;25.02;4.57;;;5.00;99.90;;;;;;5024082;28;20636;-72
2022/01/28 02:55:55;;;;;;;24.85;4.00;;;5.00;99.90;;;;;;5040657;28;20105;-73
2022/01/28 02:58:24;;;;;;;23.77;3.47;;;5.00;99.90;;;;;;5017129;28;20470;-72
2022/01/28 03:00:50;;;;;;;28.65;4.05;;;5.00;99.90;;;;;;5048879;28;20056;-71
2022/01/28 03:03:18;;;;;;;23.75;3.00;;;4.90;99.90;;;;;;5032494;28;20059;-73
2022/01/28 03:05:45;;;;;;;34.65;4.75;;;4.90;99.90;;;;;;5020968;28;20041;-73
2022/01/28 03:08:11;;;;;;;24.05;3.05;;;4.90;99.90;;;;;;5034260;28;20044;-72
2022/01/28 03:13:17;;;;;;;31.23;3.78;;;4.80;99.90;;;;;;5036449;28;20077;-72
2022/01/28 03:15:50;;;;;;;24.48;3.80;;;4.80;99.90;;;;;;5026655;28;20048;-72
2022/01/28 03:18:21;;;;;;;26.42;3.60;;;4.70;99.90;;;;;;5036626;28;20053;-72
2022/01/28 03:23:18;;;;;;;;;;;4.70;99.90;;;;;;5036363;28;20063;-72
2022/01/28 03:25:45;;;;;;;25.00;4.20;;;4.60;99.90;;;;;;5028290;28;20457;-72
2022/01/28 03:28:13;;;;;;;19.42;3.47;;;4.90;99.90;;;;;;5043821;28;20052;-72
2022/01/28 03:30:39;;;;;;;22.88;3.22;;;4.60;99.90;;;;;;5030597;28;20046;-72
2022/01/28 03:33:04;;;;;;;18.30;3.47;;;4.60;99.90;;;;;;5029643;28;20047;-72
2022/01/28 03:35:32;;;;;;;28.15;4.35;;;4.70;99.90;;;;;;5035418;28;20057;-72
2022/01/28 03:38:00;;;;;;;25.65;3.53;;;4.60;99.90;;;;;;5010831;28;20057;-72
2022/01/28 03:40:27;;;;;;;30.17;3.85;;;4.60;99.90;;;;;;5008810;28;20051;-73
2022/01/28 03:42:52;;;;;;;26.75;4.88;;;4.50;99.90;;;;;;5048433;28;20045;-73
2022/01/28 03:45:18;;;;;;;28.27;3.35;;;4.50;99.90;;;;;;5025768;28;20038;-73
2022/01/28 03:47:44;;;;;;;27.35;3.72;;;4.50;99.90;;;;;;5037824;28;20083;-73
2022/01/28 03:50:09;;;;;;;25.00;3.67;;;4.50;99.90;;;;;;5039455;28;20619;-73
2022/01/28 03:52:35;;;;;;;28.85;3.78;;;4.50;99.90;;;;;;5018907;28;20059;-72
2022/01/28 03:55:01;;;;;;;42.17;4.57;;;4.50;99.90;;;;;;5027370;28;20128;-72
2022/01/28 03:57:27;;;;;;;29.80;4.03;;;4.50;99.90;;;;;;5034412;28;20044;-73
2022/01/28 03:59:53;;;;;;;28.83;4.50;;;4.50;99.90;;;;;;5038379;28;20529;-72
2022/01/28 04:02:22;;;;;;;28.85;4.30;;;4.60;99.90;;;;;;5013275;28;20534;-72
2022/01/28 04:12:48;;;;;;;31.60;4.18;;;4.70;99.90;;;;;;5033827;28;20057;-72
2022/01/28 04:17:58;;;;;;;40.60;6.43;;;4.80;99.90;;;;;;5029509;28;20099;-73
2022/01/28 04:20:23;;;;;;;23.17;3.58;;;4.80;99.90;;;;;;5027437;28;20038;-72
2022/01/28 04:22:49;;;;;;;36.35;4.22;;;4.80;99.90;;;;;;5027186;28;20564;-72
2022/01/28 04:25:15;;;;;;;31.40;5.10;;;4.80;99.90;;;;;;5032889;28;20029;-72
2022/01/28 04:27:40;;;;;;;33.63;4.18;;;4.80;99.90;;;;;;5027793;28;20135;-73
2022/01/28 04:30:07;;;;;;;30.83;4.72;;;4.80;99.90;;;;;;5021685;28;20037;-72
2022/01/28 04:32:34;;;;;;;27.08;3.10;;;4.90;99.90;;;;;;5024231;28;20052;-72
2022/01/28 04:34:59;;;;;;;29.65;3.70;;;4.90;99.90;;;;;;5014357;28;20050;-73
2022/01/28 04:42:41;;;;;;;28.77;4.63;;;4.80;99.90;;;;;;5034706;28;20045;-73
2022/01/28 04:47:49;;;;;;;22.98;3.15;;;4.80;99.90;;;;;;5022044;28;20049;-73
2022/01/28 04:53:19;;;;;;;27.17;3.72;;;4.60;99.90;;;;;;5009659;28;20054;-73
2022/01/28 04:58:43;;;;;;;34.13;3.90;;;4.60;99.90;;;;;;5026591;28;20077;-73
2022/01/28 05:09:11;;;;;;;20.95;3.78;;;4.50;99.90;;;;;;5026144;28;20064;-73
2022/01/28 05:27:07;;;;;;;24.13;3.78;;;4.30;99.90;;;;;;5035590;28;20453;-73
2022/01/28 05:29:33;;;;;;;28.83;3.90;;;4.30;99.90;;;;;;5012032;28;20088;-72
2022/01/28 05:31:58;;;;;;;32.08;3.78;;;4.30;99.90;;;;;;5010940;28;20085;-72
2022/01/28 05:34:27;;;;;;;29.48;3.90;;;4.30;99.90;;;;;;5031867;28;20037;-72
2022/01/28 05:36:53;;;;;;;28.88;4.25;;;4.20;99.90;;;;;;5035927;28;20422;-72
2022/01/28 05:39:20;;;;;;;36.20;4.97;;;4.20;99.90;;;;;;5016409;28;20707;-72
2022/01/28 05:41:45;;;;;;;37.50;4.18;;;4.20;99.90;;;;;;5035079;28;20106;-72
2022/01/28 05:44:11;;;;;;;24.05;3.38;;;4.10;99.90;;;;;;5029704;28;20045;-72
2022/01/28 05:46:37;;;;;;;21.75;3.05;;;4.30;99.90;;;;;;5050983;28;20037;-71
2022/01/28 05:49:02;;;;;;;24.48;3.85;;;4.10;99.90;;;;;;5026775;28;20517;-72
2022/01/28 05:51:28;;;;;;;22.20;3.88;;;4.10;99.90;;;;;;5018757;28;20058;-72
2022/01/28 05:53:57;;;;;;;25.08;3.53;;;4.10;99.90;;;;;;5036517;28;20115;-72
2022/01/28 05:56:26;;;;;;;26.20;3.47;;;4.10;99.90;;;;;;5020352;28;20089;-72
2022/01/28 05:58:53;;;;;;;27.30;3.80;;;4.10;99.90;;;;;;5015714;28;20041;-72
2022/01/28 06:01:19;;;;;;;30.02;3.88;;;4.20;99.90;;;;;;5029748;28;20061;-73
2022/01/28 06:03:47;;;;;;;24.95;3.00;;;4.20;99.90;;;;;;5010232;28;20045;-71
2022/01/28 06:06:18;;;;;;;23.95;3.58;;;4.20;99.90;;;;;;5032273;28;20073;-72
2022/01/28 06:08:44;;;;;;;;;;;4.30;99.90;;;;;;5015088;28;20038;-73
2022/01/28 06:11:10;;;;;;;28.88;3.20;;;4.30;99.90;;;;;;5040522;28;20403;-72
2022/01/28 06:13:39;;;;;;;19.67;3.47;;;4.30;99.90;;;;;;5029782;28;20073;-72
2022/01/28 06:16:04;;;;;;;22.40;4.38;;;4.40;99.90;;;;;;5042141;28;20099;-72
2022/01/28 06:18:30;;;;;;;23.40;3.08;;;4.40;99.90;;;;;;5021388;28;20529;-72
2022/01/28 06:20:56;;;;;;;24.45;3.35;;;4.40;99.90;;;;;;5033196;28;20814;-72
2022/01/28 06:23:21;;;;;;;21.92;3.33;;;4.50;99.90;;;;;;5039189;28;20037;-72
2022/01/28 06:25:48;;;;;;;29.10;3.28;;;4.40;99.90;;;;;;5031823;28;20048;-72
2022/01/28 06:28:14;;;;;;;24.60;3.15;;;4.40;99.90;;;;;;5023509;28;20076;-72
2022/01/28 06:30:40;;;;;;;24.50;3.17;;;4.50;99.90;;;;;;5003191;28;20696;-72
2022/01/28 06:33:08;;;;;;;21.23;3.55;;;4.50;99.90;;;;;;5018818;28;20079;-72
2022/01/28 06:35:34;;;;;;;26.52;3.58;;;4.50;99.90;;;;;;5006578;28;20055;-72
2022/01/28 06:38:00;;;;;;;22.60;2.97;;;4.50;99.90;;;;;;5029496;28;20536;-72
2022/01/28 06:40:25;;;;;;;21.52;2.80;;;4.50;99.90;;;;;;5038531;28;20044;-72
2022/01/28 06:42:51;;;;;;;27.63;3.20;;;4.50;99.90;;;;;;5018877;28;20497;-72
2022/01/28 06:45:17;;;;;;;29.30;3.85;;;4.50;99.90;;;;;;5016309;28;20045;-72
2022/01/28 06:47:42;;;;;;;26.77;3.35;;;4.50;99.90;;;;;;5003494;28;20063;-72
2022/01/28 06:50:09;;;;;;;24.50;3.67;;;4.50;99.90;;;;;;5045063;28;20049;-72
2022/01/28 06:52:36;;;;;;;27.00;2.88;;;4.60;99.90;;;;;;5011876;28;20033;-71
2022/01/28 06:55:03;;;;;;;21.40;3.25;;;4.70;99.90;;;;;;5043038;28;20794;-72
2022/01/28 06:57:30;;;;;;;28.70;4.00;;;4.50;99.90;;;;;;5014232;28;20171;-72
2022/01/28 06:59:56;;;;;;;22.15;3.22;;;4.50;99.90;;;;;;5016328;28;20041;-71
2022/01/28 07:02:22;;;;;;;29.52;3.50;;;4.50;99.90;;;;;;5016909;28;20038;-72
2022/01/28 07:04:48;;;;;;;27.83;3.65;;;4.60;99.90;;;;;;5022144;28;20107;-72
2022/01/28 07:07:14;;;;;;;32.50;4.20;;;4.60;99.90;;;;;;5004256;28;20044;-72
2022/01/28 07:09:39;;;;;;;32.15;4.80;;;4.60;99.90;;;;;;5034482;28;20498;-71
2022/01/28 07:12:06;;;;;;;25.38;3.60;;;4.60;99.90;;;;;;5015173;28;20597;-74
2022/01/28 07:14:32;;;;;;;22.90;3.65;;;4.60;99.90;;;;;;5003054;28;20083;-74
2022/01/28 07:16:57;;;;;;;29.85;4.75;;;4.50;99.90;;;;;;5023229;28;20077;-74
2022/01/28 07:19:23;;;;;;;26.58;3.70;;;4.50;99.90;;;;;;5023157;28;20414;-74
2022/01/28 07:21:49;;;;;;;27.63;3.65;;;4.50;99.90;;;;;;5005703;28;20041;-74
2022/01/28 07:24:15;;;;;;;24.38;3.40;;;4.50;99.90;;;;;;5005368;28;20053;-74
2022/01/28 07:26:41;;;;;;;22.95;4.13;;;4.50;99.90;;;;;;5022411;28;20065;-74
2022/01/28 07:29:09;;;;;;;28.13;3.83;;;4.40;99.90;;;;;;5040684;28;20080;-74
2022/01/28 07:31:36;;;;;;;26.05;4.97;;;4.30;99.90;;;;;;5021582;28;20461;-74
2022/01/28 07:34:02;;;;;;;30.00;3.08;;;4.30;99.90;;;;;;5002694;28;20037;-72
2022/01/28 07:36:27;;;;;;;23.45;3.53;;;4.60;99.90;;;;;;5025693;28;20056;-74
2022/01/28 07:38:53;;;;;;;30.50;3.90;;;4.30;99.90;;;;;;5007328;28;20049;-73
2022/01/28 07:41:18;;;;;;;26.75;4.05;;;4.30;99.90;;;;;;5037636;28;20103;-74
2022/01/28 07:43:47;;;;;;;20.02;3.47;;;4.20;99.90;;;;;;5040413;28;20041;-74
2022/01/28 07:46:14;;;;;;;26.17;4.07;;;4.20;99.90;;;;;;5022163;28;20049;-74
2022/01/28 07:48:40;;;;;;;29.88;3.88;;;4.20;99.90;;;;;;5008853;28;20044;-74
2022/01/28 07:51:06;;;;;;;29.13;3.00;;;4.10;99.90;;;;;;5007162;28;20490;-74
2022/01/28 07:53:31;;;;;;;27.23;3.55;;;4.10;99.90;;;;;;5023090;28;20053;-74
2022/01/28 07:55:58;;;;;;;24.50;3.60;;;4.10;99.90;;;;;;5023756;28;20077;-73
2022/01/28 07:58:23;;;;;;;32.67;4.72;;;4.10;99.90;;;;;;5023079;28;20528;-73
2022/01/28 08:00:49;;;;;;;28.15;3.63;;;4.20;99.90;;;;;;5022255;28;20044;-74
2022/01/28 08:03:15;;;;;;;23.92;4.03;;;4.10;99.90;;;;;;5021397;28;20060;-74
2022/01/28 08:05:41;;;;;;;33.53;4.53;;;4.20;99.90;;;;;;5022073;28;20041;-73
2022/01/28 08:08:08;;;;;;;24.75;3.45;;;4.20;99.90;;;;;;5023218;28;20498;-74
2022/01/28 08:10:35;;;;;;;21.75;3.85;;;4.00;99.90;;;;;;5022494;28;20076;-75
2022/01/28 08:13:02;;;;;;;27.05;3.67;;;4.20;99.90;;;;;;5020827;28;20807;-74
2022/01/28 08:15:28;;;;;;;26.15;4.07;;;4.30;99.90;;;;;;5006832;28;20068;-75
2022/01/28 08:17:53;;;;;;;22.02;3.80;;;4.50;99.90;;;;;;5039817;28;20499;-75
2022/01/28 08:20:19;;;;;;;24.42;3.03;;;4.70;99.90;;;;;;5021663;28;20581;-74
2022/01/28 08:22:53;;;;;;;27.52;4.07;;;4.90;99.90;;;;;;5023394;28;20502;-74
2022/01/28 08:25:24;;;;;;;25.60;4.57;;;4.80;99.90;;;;;;5039757;28;20077;-74
2022/01/28 08:27:50;;;;;;;22.97;3.77;;;4.80;99.90;;;;;;5035867;28;20037;-74
2022/01/28 08:30:18;;;;;;;32.03;4.20;;;4.70;99.90;;;;;;5022160;28;20107;-75
2022/01/28 08:32:45;;;;;;;29.80;3.65;;;4.70;99.90;;;;;;5039622;28;20449;-74
2022/01/28 08:35:11;;;;;;;26.83;3.33;;;4.60;99.90;;;;;;5008157;28;20053;-75
2022/01/28 08:37:37;;;;;;;25.90;3.75;;;4.60;99.90;;;;;;5039708;28;20064;-75
2022/01/28 08:40:06;;;;;;;25.20;3.55;;;4.70;99.90;;;;;;5023328;28;20037;-74
2022/01/28 08:42:32;;;;;;;32.42;3.85;;;4.70;99.90;;;;;;5021822;28;20057;-74
2022/01/28 08:44:58;;;;;;;32.05;4.07;;;4.80;99.90;;;;;;5021878;28;20533;-75
2022/01/28 08:47:23;;;;;;;31.98;3.83;;;4.80;99.90;;;;;;5038277;28;20045;-74
2022/01/28 08:49:49;;;;;;;24.90;3.17;;;4.80;99.90;;;;;;5023916;28;20076;-74
2022/01/28 08:52:15;;;;;;;26.95;4.35;;;4.80;99.90;;;;;;5028533;28;20030;-74
2022/01/28 08:54:41;;;;;;;27.73;3.13;;;4.80;99.90;;;;;;5027489;28;20509;-74
2022/01/28 08:57:07;;;;;;;32.08;4.57;;;4.80;99.90;;;;;;5044678;28;20126;-74
2022/01/28 08:59:33;;;;;;;27.15;3.45;;;4.80;99.90;;;;;;5028330;28;20041;-74
2022/01/28 09:01:59;;;;;;;27.00;3.45;;;4.80;99.90;;;;;;5027710;28;20518;-75
2022/01/28 09:04:24;;;;;;;29.60;3.70;;;4.90;99.90;;;;;;5028389;28;20080;-74
2022/01/28 09:06:50;;;;;;;27.08;3.92;;;4.90;99.90;;;;;;5027423;28;20037;-74
2022/01/28 09:09:19;;;;;;;30.95;4.30;;;5.00;99.90;;;;;;5041763;28;20053;-74
2022/01/28 09:14:14;;;;;;;33.72;4.28;;;5.10;99.90;;;;;;5029293;28;20106;-74
2022/01/28 09:16:40;;;;;;;25.20;4.10;;;5.20;99.90;;;;;;5011361;28;20081;-74
2022/01/28 09:19:06;;;;;;;20.95;3.35;;;5.30;99.90;;;;;;5012966;28;20041;-75
2022/01/28 09:21:32;;;;;;;26.63;3.42;;;5.40;99.90;;;;;;5046323;28;20560;-74
2022/01/28 09:23:58;;;;;;;27.30;4.15;;;5.50;99.90;;;;;;5025433;28;20033;-74
2022/01/28 09:26:23;;;;;;;25.65;4.43;;;5.60;99.90;;;;;;5026352;28;20033;-74
2022/01/28 09:28:49;;;;;;;24.23;4.20;;;5.70;99.90;;;;;;5028070;28;20049;-74
2022/01/28 09:31:15;;;;;;;22.85;3.70;;;5.70;99.90;;;;;;5042076;28;20051;-74
2022/01/28 09:33:41;;;;;;;31.52;3.67;;;5.80;99.90;;;;;;5028779;28;20041;-74
2022/01/28 09:36:07;;;;;;;32.03;4.25;;;5.70;99.90;;;;;;5028996;28;20045;-74
2022/01/28 09:38:33;;;;;;;23.40;3.78;;;5.80;99.90;;;;;;5043706;28;20569;-74
2022/01/28 09:41:02;;;;;;;29.88;4.22;;;5.90;99.90;;;;;;5028205;28;20052;-74
2022/01/28 09:43:28;;;;;;;27.58;3.53;;;5.80;99.90;;;;;;5028737;28;20088;-74
2022/01/28 09:45:54;;;;;;;33.85;4.95;;;5.80;99.90;;;;;;5027499;28;20052;-75
2022/01/28 09:48:20;;;;;;;23.67;3.80;;;5.80;99.90;;;;;;5028548;28;20413;-74
2022/01/28 09:50:46;;;;;;;30.40;3.72;;;5.80;99.90;;;;;;5044786;28;20052;-74
2022/01/28 09:53:14;;;;;;;32.28;3.72;;;5.90;99.90;;;;;;5030661;28;20075;-75
2022/01/28 09:55:40;;;;;;;30.27;3.95;;;5.90;99.90;;;;;;5027140;28;20045;-74
2022/01/28 09:58:06;;;;;;;32.67;3.95;;;5.90;99.90;;;;;;5028421;28;20048;-74
2022/01/28 10:00:33;;;;;;;26.75;3.25;;;6.00;99.90;;;;;;5009928;28;20049;-74
2022/01/28 10:03:08;;;;;;;34.25;5.03;;;6.00;99.90;;;;;;5041018;28;20076;-74
2022/01/28 10:05:36;;;;;;;22.63;3.55;;;6.00;99.90;;;;;;5040863;28;20098;-74
2022/01/28 10:08:15;;;;;;;24.65;3.88;;;6.00;99.90;;;;;;5042400;28;20449;-74
2022/01/28 10:11:06;;;;;;;39.40;5.30;;;6.10;99.90;;;;;;5021536;28;20049;-74
2022/01/28 10:13:38;;;;;;;26.73;3.73;;;6.10;99.90;;;;;;5022267;28;20415;-74
2022/01/28 10:16:08;;;;;;;25.55;3.75;;;6.10;99.90;;;;;;5026005;28;20045;-74
2022/01/28 10:19:00;;;;;;;24.27;3.83;;;6.10;99.90;;;;;;5025510;28;20414;-74
2022/01/28 10:21:30;;;;;;;27.67;4.03;;;6.10;99.90;;;;;;5008367;28;20076;-74
2022/01/28 10:24:15;;;;;;;19.27;3.78;;;6.20;99.90;;;;;;5025621;28;20737;-74
2022/01/28 10:26:50;;;;;;;29.80;3.70;;;6.30;99.90;;;;;;5041924;28;20120;-74
2022/01/28 10:29:19;;;;;;;20.13;3.05;;;6.20;99.90;;;;;;5042085;28;20128;-74
2022/01/28 10:31:48;;;;;;;25.75;3.90;;;6.30;99.90;;;;;;5025690;28;20099;-74
2022/01/28 10:34:39;;;;;;;28.90;3.10;;;6.30;99.90;;;;;;5023230;28;20033;-75
2022/01/28 10:37:29;;;;;;;29.57;3.60;;;6.30;99.90;;;;;;5004869;28;20107;-75
2022/01/28 10:39:59;;;;;;;23.45;2.85;;;6.40;99.90;;;;;;5025287;28;20740;-74
2022/01/28 10:42:40;;;;;;;30.15;3.30;;;6.40;99.90;;;;;;5023877;28;20048;-74
2022/01/28 10:45:12;;;;;;;28.85;3.80;;;6.40;99.90;;;;;;5024513;28;20049;-74
2022/01/28 10:47:40;;;;;;;24.38;3.22;;;6.50;99.90;;;;;;5006408;28;20044;-74
2022/01/28 10:50:26;;;;;;;22.13;3.22;;;6.50;99.90;;;;;;5040276;28;20048;-74
2022/01/28 10:53:08;;;;;;;25.67;4.57;;;6.60;99.90;;;;;;5024083;28;20053;-74
2022/01/28 10:55:37;;;;;;;29.77;4.40;;;6.60;99.90;;;;;;5038710;28;20037;-74
2022/01/28 10:58:05;;;;;;;20.77;2.88;;;6.60;99.90;;;;;;5024133;28;20054;-74
2022/01/28 11:00:34;;;;;;;25.58;3.50;;;6.70;99.90;;;;;;5024220;28;20056;-74
2022/01/28 11:03:02;;;;;;;24.08;3.22;;;6.70;99.90;;;;;;5041118;28;20049;-74
2022/01/28 11:05:29;;;;;;;23.35;3.63;;;6.70;99.90;;;;;;5025089;28;20045;-74
2022/01/28 11:07:57;;;;;;;19.77;4.30;;;6.70;99.90;;;;;;5038305;28;20176;-74
2022/01/28 11:10:23;;;;;;;21.90;3.40;;;6.70;99.90;;;;;;5022741;28;20041;-74
2022/01/28 11:12:51;;;;;;;32.70;3.97;;;6.70;99.90;;;;;;5008940;28;20073;-74
2022/01/28 11:15:17;;;;;;;26.23;3.40;;;6.70;99.90;;;;;;5023416;28;20111;-74
2022/01/28 11:17:42;;;;;;;31.08;4.10;;;6.80;99.90;;;;;;5006490;28;20545;-75
2022/01/28 11:20:09;;;;;;;27.23;4.18;;;6.80;99.90;;;;;;5008653;28;20076;-74
2022/01/28 11:22:45;;;;;;;33.22;5.40;;;6.80;99.90;;;;;;5022311;28;20053;-74
2022/01/28 11:25:48;;;;;;;28.48;4.55;;;6.90;99.90;;;;;;5023998;28;20042;-74
2022/01/28 11:28:14;;;;;;;29.65;4.70;;;6.90;99.90;;;;;;4997281;28;20136;-74
2022/01/28 11:30:51;;;;;;;28.90;4.63;;;6.80;99.90;;;;;;5013468;28;20041;-74
2022/01/28 11:33:17;;;;;;;24.77;3.38;;;6.80;99.90;;;;;;5020589;28;20045;-74
2022/01/28 11:35:52;;;;;;;26.77;4.53;;;6.80;99.90;;;;;;5037278;28;20045;-74
2022/01/28 11:38:27;;;;;;;20.60;4.22;;;6.80;99.90;;;;;;5034964;28;20698;-74
2022/01/28 11:40:59;;;;;;;31.55;4.32;;;6.80;99.90;;;;;;5014955;28;20727;-74
2022/01/28 11:43:29;;;;;;;26.60;4.43;;;6.80;99.90;;;;;;5031436;28;20053;-75
2022/01/28 11:46:21;;;;;;;27.27;4.53;;;6.80;99.90;;;;;;5005425;28;20049;-75
2022/01/28 11:49:07;;;;;;;25.08;3.80;;;6.80;99.90;;;;;;5015613;28;20068;-75
2022/01/28 11:51:33;;;;;;;22.25;3.35;;;6.80;99.90;;;;;;5016057;28;20056;-75
2022/01/28 11:54:14;;;;;;;28.88;4.60;;;6.90;99.90;;;;;;5017880;28;20049;-74
2022/01/28 11:57:01;;;;;;;26.00;3.65;;;6.80;99.90;;;;;;5021342;28;20711;-75
2022/01/28 11:59:28;;;;;;;28.77;3.53;;;6.70;99.90;;;;;;5023113;28;20060;-75
2022/01/28 12:01:53;;;;;;;30.63;3.58;;;6.70;99.90;;;;;;5036261;28;20048;-75
2022/01/28 12:04:25;;;;;;;21.65;3.33;;;6.70;99.90;;;;;;5019365;28;20091;-75
2022/01/28 12:06:55;;;;;;;16.55;2.47;;;6.80;99.90;;;;;;5015885;28;20049;-75
2022/01/28 12:09:23;;;;;;;25.20;3.10;;;6.90;99.90;;;;;;5018772;28;20054;-75
2022/01/28 12:11:49;;;;;;;28.77;3.55;;;7.00;99.90;;;;;;5016410;28;20794;-75
2022/01/28 12:14:15;;;;;;;23.60;4.70;;;7.40;99.90;;;;;;5035669;28;20057;-74
2022/01/28 12:16:45;;;;;;;27.42;3.40;;;7.10;99.90;;;;;;5018032;28;20045;-74
2022/01/28 12:19:22;;;;;;;21.83;3.03;;;7.10;99.90;;;;;;5017523;28;20053;-75
2022/01/28 12:22:24;;;;;;;15.90;3.00;;;7.10;99.90;;;;;;5019308;28;20052;-75
2022/01/28 12:24:49;;;;;;;20.25;3.40;;;7.00;99.90;;;;;;4999467;28;20045;-75
2022/01/28 12:27:18;;;;;;;20.13;3.35;;;7.00;99.90;;;;;;5010624;28;20072;-74
2022/01/28 12:29:46;;;;;;;20.20;2.65;;;6.90;99.90;;;;;;5033147;28;20095;-75
2022/01/28 12:32:13;;;;;;;15.38;2.65;;;6.90;99.90;;;;;;5003737;28;20029;-75
2022/01/28 12:34:43;;;;;;;16.30;3.10;;;6.90;99.90;;;;;;5016884;28;20049;-75
2022/01/28 12:37:09;;;;;;;23.15;2.90;;;6.90;99.90;;;;;;5018003;28;20132;-75
2022/01/28 12:39:43;;;;;;;24.50;2.70;;;6.90;99.90;;;;;;5031630;28;20160;-74
2022/01/28 12:42:22;;;;;;;23.35;3.55;;;6.80;99.90;;;;;;5018008;28;20049;-75
2022/01/28 12:44:53;;;;;;;20.35;2.75;;;6.80;99.90;;;;;;5015616;28;20053;-75
2022/01/28 12:47:19;;;;;;;22.77;2.95;;;6.90;99.90;;;;;;5033049;28;20135;-75
2022/01/28 12:49:46;;;;;;;19.48;3.17;;;6.70;99.90;;;;;;5015453;28;20711;-74
2022/01/28 12:52:12;;;;;;;21.35;3.38;;;6.70;99.90;;;;;;5000260;28;20561;-74
2022/01/28 12:54:45;;;;;;;21.10;3.25;;;6.70;99.90;;;;;;5016172;28;20605;-74
2022/01/28 12:57:14;;;;;;;21.55;3.03;;;6.80;99.90;;;;;;5015991;28;20110;-74
2022/01/28 12:59:42;;;;;;;25.65;3.30;;;6.90;99.90;;;;;;5033939;28;20049;-75
2022/01/28 13:02:08;;;;;;;19.80;2.50;;;7.00;99.90;;;;;;4999632;28;20124;-74
2022/01/28 13:10:28;;;;;;;22.67;2.60;;;7.20;99.90;;;;;;4992768;28;20088;-75
2022/01/28 13:13:06;;;;;;;19.02;3.05;;;7.10;99.90;;;;;;5016298;28;20042;-75
2022/01/28 13:15:33;;;;;;;24.08;3.20;;;7.10;99.90;;;;;;5002235;28;20057;-76
2022/01/28 13:18:01;;;;;;;29.45;2.80;;;7.00;99.90;;;;;;5012384;28;20055;-75
2022/01/28 13:20:41;;;;;;;20.95;2.47;;;7.00;99.90;;;;;;5017209;28;20433;-75
2022/01/28 13:23:09;;;;;;;21.05;2.60;;;7.10;99.90;;;;;;5032546;28;20064;-73
2022/01/28 13:25:35;;;;;;;19.35;3.40;;;7.10;99.90;;;;;;5033831;28;20152;-75
2022/01/28 13:28:04;;;;;;;26.02;2.83;;;7.10;99.90;;;;;;5032857;28;20042;-74
2022/01/28 13:30:34;;;;;;;23.00;2.63;;;7.10;99.90;;;;;;5001296;28;20096;-74
2022/01/28 13:33:09;;;;;;;13.27;2.08;;;7.10;99.90;;;;;;5017159;28;20052;-74
2022/01/28 13:35:37;;;;;;;18.88;3.33;;;7.00;99.90;;;;;;5018493;28;20057;-75
2022/01/28 13:38:17;;;;;;;17.42;2.45;;;7.00;99.90;;;;;;5021045;28;20057;-74
2022/01/28 13:40:42;;;;;;;18.58;2.70;;;7.00;99.90;;;;;;5018499;28;20053;-74
2022/01/28 13:43:17;;;;;;;17.85;2.53;;;7.00;99.90;;;;;;5020250;28;20049;-75
2022/01/28 13:45:53;;;;;;;21.23;2.83;;;7.00;99.90;;;;;;5020414;28;20057;-74
2022/01/28 13:48:36;;;;;;;31.58;3.38;;;7.00;99.90;;;;;;5037264;28;20060;-75
2022/01/28 13:51:13;;;;;;;24.58;2.60;;;7.00;99.90;;;;;;5018206;28;20474;-74
2022/01/28 13:56:32;;;;;;;22.42;2.83;;;7.10;99.90;;;;;;5018437;28;20627;-74
2022/01/28 13:58:58;;;;;;;16.88;2.65;;;7.10;99.90;;;;;;5027283;28;20050;-74
2022/01/28 14:01:26;;;;;;;23.83;2.83;;;7.10;99.90;;;;;;5014526;28;20046;-74
2022/01/28 14:03:57;;;;;;;17.40;2.45;;;7.10;99.90;;;;;;5012327;28;20045;-74
2022/01/28 14:06:26;;;;;;;18.02;3.63;;;7.10;99.90;;;;;;5017907;28;20047;-75
2022/01/28 14:08:54;;;;;;;18.30;2.85;;;7.10;99.90;;;;;;5016069;28;20110;-74
2022/01/28 14:11:39;;;;;;;27.20;3.80;;;7.10;99.90;;;;;;5034042;28;20044;-74
2022/01/28 14:14:16;;;;;;;20.30;2.80;;;7.10;99.90;;;;;;5038980;28;20052;-74
2022/01/28 14:17:05;;;;;;;10.60;2.17;;;7.00;99.90;;;;;;5024933;28;20280;-74
2022/01/28 14:19:34;;;;;;;23.98;1.95;;;7.00;99.90;;;;;;5020828;28;20061;-74
2022/01/28 14:22:00;;;;;;;21.92;3.05;;;7.00;99.90;;;;;;5036133;28;20092;-74
2022/01/28 14:24:28;;;;;;;19.23;2.05;;;7.00;99.90;;;;;;5040416;28;20076;-74
2022/01/28 14:27:12;;;;;;;22.05;2.88;;;7.00;99.90;;;;;;5018345;28;20057;-75
2022/01/28 14:32:11;;;;;;;17.48;2.72;;;6.90;99.90;;;;;;5022622;28;20053;-75
2022/01/28 14:34:38;;;;;;;15.13;2.60;;;6.80;99.90;;;;;;5040935;28;20049;-74
2022/01/28 14:37:05;;;;;;;17.20;2.30;;;6.80;99.90;;;;;;5039202;28;20103;-74
2022/01/28 14:39:35;;;;;;;20.63;2.72;;;6.70;99.90;;;;;;5021460;28;20049;-74
2022/01/28 14:42:03;;;;;;;14.57;2.60;;;6.70;99.90;;;;;;5028116;28;20759;-74